sensor_id;sensor_type;location;lat;lon;timestamp;temperature;humidity
3690;DHT22;1861;50.240;8.596;2023-08-21T00:01:18;22.70;99.90
3690;DHT22;1861;50.240;8.596;2023-08-21T00:03:46;22.70;99.90
3690;DHT22;1861;50.240;8.596;2023-08-21T00:06:14;22.70;99.90
3690;DHT22;1861;50.240;8.596;2023-08-21T00:08:42;22.70;99.90
3690;DHT22;1861;50.240;8.596;2023-08-21T00:11:10;22.70;99.90
3690;DHT22;1861;50.240;8.596;2023-08-21T00:13:40;22.70;99.90
3690;DHT22;1861;50.240;8.596;2023-08-21T00:16:11;22.70;99.90
3690;DHT22;1861;50.240;8.596;2023-08-21T00:18:39;22.60;99.90
3690;DHT22;1861;50.240;8.596;2023-08-21T00:21:07;22.60;99.90
3690;DHT22;1861;50.240;8.596;2023-08-21T00:23:35;22.60;99.90
3690;DHT22;1861;50.240;8.596;2023-08-21T00:26:03;22.70;99.90
3690;DHT22;1861;50.240;8.596;2023-08-21T00:28:32;22.60;99.90
3690;DHT22;1861;50.240;8.596;2023-08-21T00:31:03;22.60;99.90
3690;DHT22;1861;50.240;8.596;2023-08-21T00:33:32;22.60;99.90
3690;DHT22;1861;50.240;8.596;2023-08-21T00:36:01;22.60;99.90
3690;DHT22;1861;50.240;8.596;2023-08-21T00:38:29;22.60;99.90
3690;DHT22;1861;50.240;8.596;2023-08-21T00:40:58;22.70;99.90
3690;DHT22;1861;50.240;8.596;2023-08-21T00:43:26;22.60;99.90
3690;DHT22;1861;50.240;8.596;2023-08-21T00:45:54;22.60;99.90
3690;DHT22;1861;50.240;8.596;2023-08-21T00:48:24;22.60;99.90
3690;DHT22;1861;50.240;8.596;2023-08-21T00:50:53;22.60;99.90
3690;DHT22;1861;50.240;8.596;2023-08-21T00:53:22;22.60;99.90
3690;DHT22;1861;50.240;8.596;2023-08-21T00:55:51;22.60;99.90
3690;DHT22;1861;50.240;8.596;2023-08-21T00:58:19;22.60;99.90
3690;DHT22;1861;50.240;8.596;2023-08-21T01:00:49;22.60;99.90
3690;DHT22;1861;50.240;8.596;2023-08-21T01:03:18;22.60;99.90
3690;DHT22;1861;50.240;8.596;2023-08-21T01:05:48;22.60;99.90
3690;DHT22;1861;50.240;8.596;2023-08-21T01:08:24;22.60;99.90
3690;DHT22;1861;50.240;8.596;2023-08-21T01:10:56;22.60;99.90
3690;DHT22;1861;50.240;8.596;2023-08-21T01:13:38;22.60;99.90
3690;DHT22;1861;50.240;8.596;2023-08-21T01:16:11;22.50;99.90
3690;DHT22;1861;50.240;8.596;2023-08-21T01:18:42;22.60;99.90
3690;DHT22;1861;50.240;8.596;2023-08-21T01:21:12;22.60;99.90
3690;DHT22;1861;50.240;8.596;2023-08-21T01:23:42;22.60;99.90
3690;DHT22;1861;50.240;8.596;2023-08-21T01:26:10;22.50;99.90
3690;DHT22;1861;50.240;8.596;2023-08-21T01:28:38;22.50;99.90
3690;DHT22;1861;50.240;8.596;2023-08-21T01:31:09;22.60;99.90
3690;DHT22;1861;50.240;8.596;2023-08-21T01:33:44;22.50;99.90
3690;DHT22;1861;50.240;8.596;2023-08-21T01:36:13;22.60;99.90
3690;DHT22;1861;50.240;8.596;2023-08-21T01:38:43;22.50;99.90
3690;DHT22;1861;50.240;8.596;2023-08-21T01:41:12;22.60;99.90
3690;DHT22;1861;50.240;8.596;2023-08-21T01:43:40;22.50;99.90
3690;DHT22;1861;50.240;8.596;2023-08-21T01:46:08;22.50;99.90
3690;DHT22;1861;50.240;8.596;2023-08-21T01:48:36;22.50;99.90
3690;DHT22;1861;50.240;8.596;2023-08-21T01:51:05;22.50;99.90
3690;DHT22;1861;50.240;8.596;2023-08-21T01:53:33;22.50;99.90
3690;DHT22;1861;50.240;8.596;2023-08-21T01:56:02;22.50;99.90
3690;DHT22;1861;50.240;8.596;2023-08-21T01:58:32;22.50;99.90
3690;DHT22;1861;50.240;8.596;2023-08-21T02:01:00;22.50;99.90
3690;DHT22;1861;50.240;8.596;2023-08-21T02:03:29;22.50;99.90
3690;DHT22;1861;50.240;8.596;2023-08-21T02:05:58;22.60;99.90
3690;DHT22;1861;50.240;8.596;2023-08-21T02:08:31;22.50;99.90
3690;DHT22;1861;50.240;8.596;2023-08-21T02:10:59;22.50;99.90
3690;DHT22;1861;50.240;8.596;2023-08-21T02:13:30;22.50;99.90
3690;DHT22;1861;50.240;8.596;2023-08-21T02:16:00;22.50;99.90
3690;DHT22;1861;50.240;8.596;2023-08-21T02:18:28;22.50;99.90
3690;DHT22;1861;50.240;8.596;2023-08-21T02:20:57;22.50;99.90
3690;DHT22;1861;50.240;8.596;2023-08-21T02:23:25;22.50;99.90
3690;DHT22;1861;50.240;8.596;2023-08-21T02:25:53;22.50;99.90
3690;DHT22;1861;50.240;8.596;2023-08-21T02:28:22;22.50;99.90
3690;DHT22;1861;50.240;8.596;2023-08-21T02:30:51;22.50;99.90
3690;DHT22;1861;50.240;8.596;2023-08-21T02:33:19;22.50;99.90
3690;DHT22;1861;50.240;8.596;2023-08-21T02:35:47;22.50;99.90
3690;DHT22;1861;50.240;8.596;2023-08-21T02:38:15;22.50;99.90
3690;DHT22;1861;50.240;8.596;2023-08-21T02:40:44;22.50;99.90
3690;DHT22;1861;50.240;8.596;2023-08-21T02:43:12;22.40;99.90
3690;DHT22;1861;50.240;8.596;2023-08-21T02:45:40;22.50;99.90
3690;DHT22;1861;50.240;8.596;2023-08-21T02:48:10;22.50;99.90
3690;DHT22;1861;50.240;8.596;2023-08-21T02:50:38;22.50;99.90
3690;DHT22;1861;50.240;8.596;2023-08-21T02:53:06;22.40;99.90
3690;DHT22;1861;50.240;8.596;2023-08-21T02:55:35;22.50;99.90
3690;DHT22;1861;50.240;8.596;2023-08-21T02:58:03;22.50;99.90
3690;DHT22;1861;50.240;8.596;2023-08-21T03:00:31;22.40;99.90
3690;DHT22;1861;50.240;8.596;2023-08-21T03:02:59;22.40;99.90
3690;DHT22;1861;50.240;8.596;2023-08-21T03:05:29;22.40;99.90
3690;DHT22;1861;50.240;8.596;2023-08-21T03:07:57;22.40;99.90
3690;DHT22;1861;50.240;8.596;2023-08-21T03:10:25;22.40;99.90
3690;DHT22;1861;50.240;8.596;2023-08-21T03:12:55;22.40;99.90
3690;DHT22;1861;50.240;8.596;2023-08-21T03:15:23;22.40;99.90
3690;DHT22;1861;50.240;8.596;2023-08-21T03:17:51;22.40;99.90
3690;DHT22;1861;50.240;8.596;2023-08-21T03:20:19;22.40;99.90
3690;DHT22;1861;50.240;8.596;2023-08-21T03:22:49;22.40;99.90
3690;DHT22;1861;50.240;8.596;2023-08-21T03:25:17;22.40;99.90
3690;DHT22;1861;50.240;8.596;2023-08-21T03:27:45;22.40;99.90
3690;DHT22;1861;50.240;8.596;2023-08-21T03:30:16;22.40;99.90
3690;DHT22;1861;50.240;8.596;2023-08-21T03:32:44;22.40;99.90
3690;DHT22;1861;50.240;8.596;2023-08-21T03:35:13;22.40;99.90
3690;DHT22;1861;50.240;8.596;2023-08-21T03:37:41;22.40;99.90
3690;DHT22;1861;50.240;8.596;2023-08-21T03:40:14;22.40;99.90
3690;DHT22;1861;50.240;8.596;2023-08-21T03:42:42;22.30;99.90
3690;DHT22;1861;50.240;8.596;2023-08-21T03:45:11;22.30;99.90
3690;DHT22;1861;50.240;8.596;2023-08-21T03:47:39;22.30;99.90
3690;DHT22;1861;50.240;8.596;2023-08-21T03:50:15;22.30;99.90
3690;DHT22;1861;50.240;8.596;2023-08-21T03:52:43;22.30;99.90
3690;DHT22;1861;50.240;8.596;2023-08-21T03:55:11;22.40;99.90
3690;DHT22;1861;50.240;8.596;2023-08-21T03:57:41;22.30;99.90
3690;DHT22;1861;50.240;8.596;2023-08-21T04:00:09;22.30;99.90
3690;DHT22;1861;50.240;8.596;2023-08-21T04:02:41;22.30;99.90
3690;DHT22;1861;50.240;8.596;2023-08-21T04:05:10;22.30;99.90
3690;DHT22;1861;50.240;8.596;2023-08-21T04:07:38;22.30;99.90
3690;DHT22;1861;50.240;8.596;2023-08-21T04:10:07;22.30;99.90
3690;DHT22;1861;50.240;8.596;2023-08-21T04:12:35;22.30;99.90
3690;DHT22;1861;50.240;8.596;2023-08-21T04:15:06;22.30;99.90
3690;DHT22;1861;50.240;8.596;2023-08-21T04:17:35;22.30;99.90
3690;DHT22;1861;50.240;8.596;2023-08-21T04:20:05;22.30;99.90
3690;DHT22;1861;50.240;8.596;2023-08-21T04:22:33;22.30;99.90
3690;DHT22;1861;50.240;8.596;2023-08-21T04:25:03;22.30;99.90
3690;DHT22;1861;50.240;8.596;2023-08-21T04:27:32;22.30;99.90
3690;DHT22;1861;50.240;8.596;2023-08-21T04:30:01;22.30;99.90
3690;DHT22;1861;50.240;8.596;2023-08-21T04:32:31;22.20;99.90
3690;DHT22;1861;50.240;8.596;2023-08-21T04:34:59;22.30;99.90
3690;DHT22;1861;50.240;8.596;2023-08-21T04:37:27;22.20;99.90
3690;DHT22;1861;50.240;8.596;2023-08-21T04:39:56;22.20;99.90
3690;DHT22;1861;50.240;8.596;2023-08-21T04:42:24;22.20;99.90
3690;DHT22;1861;50.240;8.596;2023-08-21T04:44:53;22.20;99.90
3690;DHT22;1861;50.240;8.596;2023-08-21T04:47:22;22.20;99.90
3690;DHT22;1861;50.240;8.596;2023-08-21T04:49:56;22.20;99.90
3690;DHT22;1861;50.240;8.596;2023-08-21T04:52:24;22.20;99.90
3690;DHT22;1861;50.240;8.596;2023-08-21T04:54:53;22.20;99.90
3690;DHT22;1861;50.240;8.596;2023-08-21T04:57:22;22.20;99.90
3690;DHT22;1861;50.240;8.596;2023-08-21T04:59:50;22.20;99.90
3690;DHT22;1861;50.240;8.596;2023-08-21T05:02:20;22.10;99.90
3690;DHT22;1861;50.240;8.596;2023-08-21T05:04:50;22.10;99.90
3690;DHT22;1861;50.240;8.596;2023-08-21T05:07:20;22.20;99.90
3690;DHT22;1861;50.240;8.596;2023-08-21T05:09:48;22.20;99.90
3690;DHT22;1861;50.240;8.596;2023-08-21T05:12:19;22.20;99.90
3690;DHT22;1861;50.240;8.596;2023-08-21T05:14:47;22.20;99.90
3690;DHT22;1861;50.240;8.596;2023-08-21T05:17:15;22.20;99.90
3690;DHT22;1861;50.240;8.596;2023-08-21T05:19:43;22.20;99.90
3690;DHT22;1861;50.240;8.596;2023-08-21T05:22:11;22.20;99.90
3690;DHT22;1861;50.240;8.596;2023-08-21T05:24:41;22.20;99.90
3690;DHT22;1861;50.240;8.596;2023-08-21T05:27:09;22.20;99.90
3690;DHT22;1861;50.240;8.596;2023-08-21T05:29:37;22.20;99.90
3690;DHT22;1861;50.240;8.596;2023-08-21T05:32:06;22.20;99.90
3690;DHT22;1861;50.240;8.596;2023-08-21T05:34:35;22.20;99.90
3690;DHT22;1861;50.240;8.596;2023-08-21T05:37:03;22.20;99.90
3690;DHT22;1861;50.240;8.596;2023-08-21T05:39:31;22.20;99.90
3690;DHT22;1861;50.240;8.596;2023-08-21T05:42:02;22.20;99.90
3690;DHT22;1861;50.240;8.596;2023-08-21T05:44:30;22.30;99.90
3690;DHT22;1861;50.240;8.596;2023-08-21T05:46:59;22.30;99.90
3690;DHT22;1861;50.240;8.596;2023-08-21T05:49:28;22.30;99.90
3690;DHT22;1861;50.240;8.596;2023-08-21T05:51:56;22.30;99.90
3690;DHT22;1861;50.240;8.596;2023-08-21T05:54:25;22.30;99.90
3690;DHT22;1861;50.240;8.596;2023-08-21T05:56:55;22.30;99.90
3690;DHT22;1861;50.240;8.596;2023-08-21T05:59:30;22.30;99.90
3690;DHT22;1861;50.240;8.596;2023-08-21T06:02:00;22.30;99.90
3690;DHT22;1861;50.240;8.596;2023-08-21T06:04:29;22.40;99.90
3690;DHT22;1861;50.240;8.596;2023-08-21T06:07:01;22.30;99.90
3690;DHT22;1861;50.240;8.596;2023-08-21T06:09:30;22.30;99.90
3690;DHT22;1861;50.240;8.596;2023-08-21T06:11:58;22.30;99.90
3690;DHT22;1861;50.240;8.596;2023-08-21T06:14:29;22.30;99.90
3690;DHT22;1861;50.240;8.596;2023-08-21T06:17:01;22.30;99.90
3690;DHT22;1861;50.240;8.596;2023-08-21T06:19:30;22.30;99.90
3690;DHT22;1861;50.240;8.596;2023-08-21T06:21:58;22.40;99.90
3690;DHT22;1861;50.240;8.596;2023-08-21T06:24:26;22.40;99.90
3690;DHT22;1861;50.240;8.596;2023-08-21T06:27:00;22.40;99.90
3690;DHT22;1861;50.240;8.596;2023-08-21T06:29:30;22.40;99.90
3690;DHT22;1861;50.240;8.596;2023-08-21T06:31:58;22.40;99.90
3690;DHT22;1861;50.240;8.596;2023-08-21T06:34:26;22.40;99.90
3690;DHT22;1861;50.240;8.596;2023-08-21T06:36:55;22.40;99.90
3690;DHT22;1861;50.240;8.596;2023-08-21T06:39:23;22.40;99.90
3690;DHT22;1861;50.240;8.596;2023-08-21T06:41:51;22.40;99.90
3690;DHT22;1861;50.240;8.596;2023-08-21T06:44:20;22.40;99.90
3690;DHT22;1861;50.240;8.596;2023-08-21T06:46:50;22.40;99.90
3690;DHT22;1861;50.240;8.596;2023-08-21T06:49:19;22.40;99.90
3690;DHT22;1861;50.240;8.596;2023-08-21T06:51:47;22.40;99.90
3690;DHT22;1861;50.240;8.596;2023-08-21T06:54:15;22.40;99.90
3690;DHT22;1861;50.240;8.596;2023-08-21T06:56:44;22.50;99.90
3690;DHT22;1861;50.240;8.596;2023-08-21T06:59:13;22.50;99.90
3690;DHT22;1861;50.240;8.596;2023-08-21T07:01:42;22.40;99.90
3690;DHT22;1861;50.240;8.596;2023-08-21T07:04:11;22.50;99.90
3690;DHT22;1861;50.240;8.596;2023-08-21T07:06:40;22.50;99.90
3690;DHT22;1861;50.240;8.596;2023-08-21T07:09:08;22.50;99.90
3690;DHT22;1861;50.240;8.596;2023-08-21T07:11:37;22.50;99.90
3690;DHT22;1861;50.240;8.596;2023-08-21T07:14:05;22.50;99.90
3690;DHT22;1861;50.240;8.596;2023-08-21T07:16:33;22.50;99.90
3690;DHT22;1861;50.240;8.596;2023-08-21T07:19:01;22.50;99.90
3690;DHT22;1861;50.240;8.596;2023-08-21T07:21:31;22.50;99.90
3690;DHT22;1861;50.240;8.596;2023-08-21T07:24:02;22.50;99.90
3690;DHT22;1861;50.240;8.596;2023-08-21T07:26:31;22.50;99.90
3690;DHT22;1861;50.240;8.596;2023-08-21T07:28:59;22.50;99.90
3690;DHT22;1861;50.240;8.596;2023-08-21T07:31:27;22.50;99.90
3690;DHT22;1861;50.240;8.596;2023-08-21T07:33:55;22.50;99.90
3690;DHT22;1861;50.240;8.596;2023-08-21T07:36:24;22.50;99.90
3690;DHT22;1861;50.240;8.596;2023-08-21T07:38:53;22.50;99.90
3690;DHT22;1861;50.240;8.596;2023-08-21T07:41:21;22.50;99.90
3690;DHT22;1861;50.240;8.596;2023-08-21T07:43:52;22.60;99.90
3690;DHT22;1861;50.240;8.596;2023-08-21T07:46:21;22.50;99.90
3690;DHT22;1861;50.240;8.596;2023-08-21T07:48:49;22.50;99.90
3690;DHT22;1861;50.240;8.596;2023-08-21T07:51:17;22.60;99.90
3690;DHT22;1861;50.240;8.596;2023-08-21T07:53:45;22.60;99.90
3690;DHT22;1861;50.240;8.596;2023-08-21T07:56:15;22.50;99.90
3690;DHT22;1861;50.240;8.596;2023-08-21T07:58:43;22.60;99.90
3690;DHT22;1861;50.240;8.596;2023-08-21T08:01:11;22.50;99.90
3690;DHT22;1861;50.240;8.596;2023-08-21T08:03:39;22.60;99.90
3690;DHT22;1861;50.240;8.596;2023-08-21T08:06:07;22.60;99.90
3690;DHT22;1861;50.240;8.596;2023-08-21T08:08:35;22.60;99.90
3690;DHT22;1861;50.240;8.596;2023-08-21T08:11:04;22.60;99.90
3690;DHT22;1861;50.240;8.596;2023-08-21T08:13:34;22.60;99.90
3690;DHT22;1861;50.240;8.596;2023-08-21T08:16:02;22.60;99.90
3690;DHT22;1861;50.240;8.596;2023-08-21T08:18:30;22.60;99.90
3690;DHT22;1861;50.240;8.596;2023-08-21T08:20:58;22.70;99.90
3690;DHT22;1861;50.240;8.596;2023-08-21T08:23:26;22.60;99.90
3690;DHT22;1861;50.240;8.596;2023-08-21T08:25:54;22.70;99.90
3690;DHT22;1861;50.240;8.596;2023-08-21T08:28:23;22.70;99.90
3690;DHT22;1861;50.240;8.596;2023-08-21T08:30:52;22.70;99.90
3690;DHT22;1861;50.240;8.596;2023-08-21T08:33:20;22.70;99.90
3690;DHT22;1861;50.240;8.596;2023-08-21T08:35:48;22.70;99.90
3690;DHT22;1861;50.240;8.596;2023-08-21T08:38:17;22.70;99.90
3690;DHT22;1861;50.240;8.596;2023-08-21T08:40:47;22.70;99.90
3690;DHT22;1861;50.240;8.596;2023-08-21T08:43:19;22.80;99.90
3690;DHT22;1861;50.240;8.596;2023-08-21T08:45:48;22.80;99.90
3690;DHT22;1861;50.240;8.596;2023-08-21T08:48:20;22.80;99.90
3690;DHT22;1861;50.240;8.596;2023-08-21T08:50:48;22.80;99.90
3690;DHT22;1861;50.240;8.596;2023-08-21T08:53:18;22.70;99.90
3690;DHT22;1861;50.240;8.596;2023-08-21T08:55:48;22.80;99.90
3690;DHT22;1861;50.240;8.596;2023-08-21T08:58:16;22.80;99.90
3690;DHT22;1861;50.240;8.596;2023-08-21T09:00:44;22.80;99.90
3690;DHT22;1861;50.240;8.596;2023-08-21T09:03:13;22.80;99.90
3690;DHT22;1861;50.240;8.596;2023-08-21T09:05:44;22.90;99.90
3690;DHT22;1861;50.240;8.596;2023-08-21T09:08:12;22.80;99.90
3690;DHT22;1861;50.240;8.596;2023-08-21T09:10:41;22.90;99.90
3690;DHT22;1861;50.240;8.596;2023-08-21T09:13:14;22.90;99.90
3690;DHT22;1861;50.240;8.596;2023-08-21T09:15:44;22.80;99.90
3690;DHT22;1861;50.240;8.596;2023-08-21T09:18:14;22.80;99.90
3690;DHT22;1861;50.240;8.596;2023-08-21T09:20:44;22.90;99.90
3690;DHT22;1861;50.240;8.596;2023-08-21T09:23:16;22.90;99.90
3690;DHT22;1861;50.240;8.596;2023-08-21T09:25:46;22.90;99.90
3690;DHT22;1861;50.240;8.596;2023-08-21T09:28:18;22.90;99.90
3690;DHT22;1861;50.240;8.596;2023-08-21T09:30:48;22.90;99.90
3690;DHT22;1861;50.240;8.596;2023-08-21T09:33:19;22.90;99.90
3690;DHT22;1861;50.240;8.596;2023-08-21T09:35:52;22.90;99.90
3690;DHT22;1861;50.240;8.596;2023-08-21T09:38:20;23.00;99.90
3690;DHT22;1861;50.240;8.596;2023-08-21T09:40:53;23.00;99.90
3690;DHT22;1861;50.240;8.596;2023-08-21T09:43:23;23.00;99.90
3690;DHT22;1861;50.240;8.596;2023-08-21T09:45:52;23.00;99.90
3690;DHT22;1861;50.240;8.596;2023-08-21T09:48:23;23.10;99.90
3690;DHT22;1861;50.240;8.596;2023-08-21T09:50:55;23.00;99.90
3690;DHT22;1861;50.240;8.596;2023-08-21T09:53:23;23.10;99.90
3690;DHT22;1861;50.240;8.596;2023-08-21T09:56:11;23.00;99.90
3690;DHT22;1861;50.240;8.596;2023-08-21T09:58:39;23.10;99.90
3690;DHT22;1861;50.240;8.596;2023-08-21T10:01:08;23.10;99.90
3690;DHT22;1861;50.240;8.596;2023-08-21T10:03:39;23.10;99.90
3690;DHT22;1861;50.240;8.596;2023-08-21T10:06:10;23.20;99.90
3690;DHT22;1861;50.240;8.596;2023-08-21T10:08:39;23.20;99.90
3690;DHT22;1861;50.240;8.596;2023-08-21T10:11:08;23.20;99.90
3690;DHT22;1861;50.240;8.596;2023-08-21T10:13:38;23.20;99.90
3690;DHT22;1861;50.240;8.596;2023-08-21T10:16:07;23.20;99.90
3690;DHT22;1861;50.240;8.596;2023-08-21T10:18:43;23.30;99.90
3690;DHT22;1861;50.240;8.596;2023-08-21T10:21:15;23.30;99.90
3690;DHT22;1861;50.240;8.596;2023-08-21T10:23:46;23.30;99.90
3690;DHT22;1861;50.240;8.596;2023-08-21T10:26:18;23.30;99.90
3690;DHT22;1861;50.240;8.596;2023-08-21T10:28:50;23.30;99.90
3690;DHT22;1861;50.240;8.596;2023-08-21T10:31:33;23.30;99.90
3690;DHT22;1861;50.240;8.596;2023-08-21T10:34:03;23.40;99.90
3690;DHT22;1861;50.240;8.596;2023-08-21T10:39:29;23.40;99.90
3690;DHT22;1861;50.240;8.596;2023-08-21T10:42:01;23.40;99.90
3690;DHT22;1861;50.240;8.596;2023-08-21T10:44:46;23.40;99.90
3690;DHT22;1861;50.240;8.596;2023-08-21T10:47:17;23.40;99.90
3690;DHT22;1861;50.240;8.596;2023-08-21T10:49:46;23.50;99.90
3690;DHT22;1861;50.240;8.596;2023-08-21T10:52:22;23.50;99.90
3690;DHT22;1861;50.240;8.596;2023-08-21T10:54:52;23.50;99.90
3690;DHT22;1861;50.240;8.596;2023-08-21T10:57:22;23.60;99.90
3690;DHT22;1861;50.240;8.596;2023-08-21T10:59:52;23.60;99.90
3690;DHT22;1861;50.240;8.596;2023-08-21T11:02:20;23.70;99.90
3690;DHT22;1861;50.240;8.596;2023-08-21T11:04:49;23.60;99.90
3690;DHT22;1861;50.240;8.596;2023-08-21T11:07:19;23.60;99.90
3690;DHT22;1861;50.240;8.596;2023-08-21T11:09:48;23.60;99.90
3690;DHT22;1861;50.240;8.596;2023-08-21T11:12:18;23.70;99.90
3690;DHT22;1861;50.240;8.596;2023-08-21T11:14:46;23.80;99.90
3690;DHT22;1861;50.240;8.596;2023-08-21T11:17:15;23.80;99.90
3690;DHT22;1861;50.240;8.596;2023-08-21T11:19:45;23.80;99.90
3690;DHT22;1861;50.240;8.596;2023-08-21T11:22:15;23.70;99.90
3690;DHT22;1861;50.240;8.596;2023-08-21T11:24:46;23.80;99.90
3690;DHT22;1861;50.240;8.596;2023-08-21T11:27:16;23.80;99.90
3690;DHT22;1861;50.240;8.596;2023-08-21T11:29:46;23.90;99.90
3690;DHT22;1861;50.240;8.596;2023-08-21T11:32:16;24.00;99.90
3690;DHT22;1861;50.240;8.596;2023-08-21T11:34:48;24.00;99.90
3690;DHT22;1861;50.240;8.596;2023-08-21T11:37:17;24.10;99.90
3690;DHT22;1861;50.240;8.596;2023-08-21T11:39:48;24.10;99.90
3690;DHT22;1861;50.240;8.596;2023-08-21T11:42:20;24.20;99.90
3690;DHT22;1861;50.240;8.596;2023-08-21T11:44:50;24.20;99.90
3690;DHT22;1861;50.240;8.596;2023-08-21T11:47:21;24.30;99.90
3690;DHT22;1861;50.240;8.596;2023-08-21T11:49:50;24.20;99.90
3690;DHT22;1861;50.240;8.596;2023-08-21T11:52:20;24.00;99.90
3690;DHT22;1861;50.240;8.596;2023-08-21T11:54:51;23.90;99.90
3690;DHT22;1861;50.240;8.596;2023-08-21T11:57:20;23.80;99.90
3690;DHT22;1861;50.240;8.596;2023-08-21T11:59:52;23.80;99.90
3690;DHT22;1861;50.240;8.596;2023-08-21T12:02:23;23.90;99.90
3690;DHT22;1861;50.240;8.596;2023-08-21T12:04:52;24.00;99.90
3690;DHT22;1861;50.240;8.596;2023-08-21T12:07:21;23.90;99.90
3690;DHT22;1861;50.240;8.596;2023-08-21T12:09:50;23.80;99.90
3690;DHT22;1861;50.240;8.596;2023-08-21T12:12:18;23.60;99.90
3690;DHT22;1861;50.240;8.596;2023-08-21T12:14:46;23.50;99.90
3690;DHT22;1861;50.240;8.596;2023-08-21T12:17:14;23.60;99.90
3690;DHT22;1861;50.240;8.596;2023-08-21T12:19:43;23.60;99.90
3690;DHT22;1861;50.240;8.596;2023-08-21T12:22:11;23.70;99.90
3690;DHT22;1861;50.240;8.596;2023-08-21T12:24:40;23.70;99.90
3690;DHT22;1861;50.240;8.596;2023-08-21T12:27:09;23.70;99.90
3690;DHT22;1861;50.240;8.596;2023-08-21T12:29:37;23.70;99.90
3690;DHT22;1861;50.240;8.596;2023-08-21T12:32:05;23.60;99.90
3690;DHT22;1861;50.240;8.596;2023-08-21T12:34:34;23.60;99.90
3690;DHT22;1861;50.240;8.596;2023-08-21T12:37:02;23.70;99.90
3690;DHT22;1861;50.240;8.596;2023-08-21T12:39:31;23.60;99.90
3690;DHT22;1861;50.240;8.596;2023-08-21T12:41:59;23.60;99.90
3690;DHT22;1861;50.240;8.596;2023-08-21T12:44:30;23.50;99.90
3690;DHT22;1861;50.240;8.596;2023-08-21T12:46:59;23.60;99.90
3690;DHT22;1861;50.240;8.596;2023-08-21T12:49:27;23.60;99.90
3690;DHT22;1861;50.240;8.596;2023-08-21T12:51:55;23.60;99.90
3690;DHT22;1861;50.240;8.596;2023-08-21T12:54:23;23.70;99.90
3690;DHT22;1861;50.240;8.596;2023-08-21T12:56:51;23.70;99.90
3690;DHT22;1861;50.240;8.596;2023-08-21T12:59:20;23.70;99.90
3690;DHT22;1861;50.240;8.596;2023-08-21T13:01:50;23.80;99.90
3690;DHT22;1861;50.240;8.596;2023-08-21T13:04:18;23.70;99.90
3690;DHT22;1861;50.240;8.596;2023-08-21T13:06:47;23.80;99.90
3690;DHT22;1861;50.240;8.596;2023-08-21T13:09:15;23.80;99.90
3690;DHT22;1861;50.240;8.596;2023-08-21T13:11:43;23.80;99.90
3690;DHT22;1861;50.240;8.596;2023-08-21T13:14:11;23.80;99.90
3690;DHT22;1861;50.240;8.596;2023-08-21T13:16:39;23.80;99.90
3690;DHT22;1861;50.240;8.596;2023-08-21T13:19:08;23.80;99.90
3690;DHT22;1861;50.240;8.596;2023-08-21T13:21:37;23.90;99.90
3690;DHT22;1861;50.240;8.596;2023-08-21T13:24:05;23.90;99.90
3690;DHT22;1861;50.240;8.596;2023-08-21T13:26:33;23.80;99.90
3690;DHT22;1861;50.240;8.596;2023-08-21T13:29:01;23.80;99.90
3690;DHT22;1861;50.240;8.596;2023-08-21T13:31:29;23.80;99.90
3690;DHT22;1861;50.240;8.596;2023-08-21T13:33:58;23.70;99.90
3690;DHT22;1861;50.240;8.596;2023-08-21T13:36:28;23.70;99.90
3690;DHT22;1861;50.240;8.596;2023-08-21T13:38:56;23.70;99.90
3690;DHT22;1861;50.240;8.596;2023-08-21T13:41:24;23.70;99.90
3690;DHT22;1861;50.240;8.596;2023-08-21T13:43:52;23.70;99.90
3690;DHT22;1861;50.240;8.596;2023-08-21T13:46:21;23.60;99.90
3690;DHT22;1861;50.240;8.596;2023-08-21T13:48:49;23.70;99.90
3690;DHT22;1861;50.240;8.596;2023-08-21T13:51:17;23.70;99.90
3690;DHT22;1861;50.240;8.596;2023-08-21T13:53:49;23.70;99.90
3690;DHT22;1861;50.240;8.596;2023-08-21T13:56:18;23.70;99.90
3690;DHT22;1861;50.240;8.596;2023-08-21T13:58:46;23.80;99.90
3690;DHT22;1861;50.240;8.596;2023-08-21T14:01:14;23.80;99.90
3690;DHT22;1861;50.240;8.596;2023-08-21T14:03:42;23.80;99.90
3690;DHT22;1861;50.240;8.596;2023-08-21T14:06:10;23.80;99.90
3690;DHT22;1861;50.240;8.596;2023-08-21T14:08:38;23.80;99.90
3690;DHT22;1861;50.240;8.596;2023-08-21T14:11:08;23.80;99.90
3690;DHT22;1861;50.240;8.596;2023-08-21T14:13:36;23.80;99.90
3690;DHT22;1861;50.240;8.596;2023-08-21T14:16:04;23.80;99.90
3690;DHT22;1861;50.240;8.596;2023-08-21T14:18:32;23.80;99.90
3690;DHT22;1861;50.240;8.596;2023-08-21T14:21:00;23.80;99.90
3690;DHT22;1861;50.240;8.596;2023-08-21T14:23:29;23.80;99.90
3690;DHT22;1861;50.240;8.596;2023-08-21T14:26:00;23.80;99.90
3690;DHT22;1861;50.240;8.596;2023-08-21T14:28:30;23.70;99.90
3690;DHT22;1861;50.240;8.596;2023-08-21T14:30:58;23.70;99.90
3690;DHT22;1861;50.240;8.596;2023-08-21T14:33:26;23.70;99.90
3690;DHT22;1861;50.240;8.596;2023-08-21T14:35:55;23.60;99.90
3690;DHT22;1861;50.240;8.596;2023-08-21T14:38:23;23.60;99.90
3690;DHT22;1861;50.240;8.596;2023-08-21T14:40:52;23.60;99.90
3690;DHT22;1861;50.240;8.596;2023-08-21T14:43:21;23.60;99.90
3690;DHT22;1861;50.240;8.596;2023-08-21T14:45:50;23.60;99.90
3690;DHT22;1861;50.240;8.596;2023-08-21T14:48:19;23.70;99.90
3690;DHT22;1861;50.240;8.596;2023-08-21T14:50:47;23.70;99.90
3690;DHT22;1861;50.240;8.596;2023-08-21T14:53:15;23.70;99.90
3690;DHT22;1861;50.240;8.596;2023-08-21T14:55:43;23.70;99.90
3690;DHT22;1861;50.240;8.596;2023-08-21T14:58:11;23.70;99.90
3690;DHT22;1861;50.240;8.596;2023-08-21T15:00:39;23.70;99.90
3690;DHT22;1861;50.240;8.596;2023-08-21T15:03:09;23.70;99.90
3690;DHT22;1861;50.240;8.596;2023-08-21T15:05:37;23.60;99.90
3690;DHT22;1861;50.240;8.596;2023-08-21T15:08:05;23.60;99.90
3690;DHT22;1861;50.240;8.596;2023-08-21T15:10:34;23.60;99.90
3690;DHT22;1861;50.240;8.596;2023-08-21T15:13:02;23.70;99.90
3690;DHT22;1861;50.240;8.596;2023-08-21T15:15:30;23.60;99.90
3690;DHT22;1861;50.240;8.596;2023-08-21T15:17:58;23.60;99.90
3690;DHT22;1861;50.240;8.596;2023-08-21T15:20:28;23.60;99.90
3690;DHT22;1861;50.240;8.596;2023-08-21T15:22:56;23.60;99.90
3690;DHT22;1861;50.240;8.596;2023-08-21T15:25:24;23.60;99.90
3690;DHT22;1861;50.240;8.596;2023-08-21T15:27:52;23.60;99.90
3690;DHT22;1861;50.240;8.596;2023-08-21T15:30:20;23.60;99.90
3690;DHT22;1861;50.240;8.596;2023-08-21T15:32:48;23.60;99.90
3690;DHT22;1861;50.240;8.596;2023-08-21T15:35:17;23.60;99.90
3690;DHT22;1861;50.240;8.596;2023-08-21T15:37:46;23.60;99.90
3690;DHT22;1861;50.240;8.596;2023-08-21T15:40:15;23.60;99.90
3690;DHT22;1861;50.240;8.596;2023-08-21T15:42:43;23.60;99.90
3690;DHT22;1861;50.240;8.596;2023-08-21T15:45:12;23.60;99.90
3690;DHT22;1861;50.240;8.596;2023-08-21T15:47:40;23.60;99.90
3690;DHT22;1861;50.240;8.596;2023-08-21T15:50:16;23.60;99.90
3690;DHT22;1861;50.240;8.596;2023-08-21T15:52:49;23.60;99.90
3690;DHT22;1861;50.240;8.596;2023-08-21T15:55:19;23.60;99.90
3690;DHT22;1861;50.240;8.596;2023-08-21T15:57:49;23.60;99.90
3690;DHT22;1861;50.240;8.596;2023-08-21T16:00:19;23.70;99.90
3690;DHT22;1861;50.240;8.596;2023-08-21T16:02:49;23.70;99.90
3690;DHT22;1861;50.240;8.596;2023-08-21T16:05:20;23.70;99.90
3690;DHT22;1861;50.240;8.596;2023-08-21T16:07:52;23.70;99.90
3690;DHT22;1861;50.240;8.596;2023-08-21T16:10:23;23.60;99.90
3690;DHT22;1861;50.240;8.596;2023-08-21T16:12:53;23.60;99.90
3690;DHT22;1861;50.240;8.596;2023-08-21T16:15:23;23.60;99.90
3690;DHT22;1861;50.240;8.596;2023-08-21T16:17:53;23.60;99.90